createdAt,value
2023-01-30T00:00:08.568Z,52.70
2023-01-30T00:01:08.563Z,52.90
2023-01-30T00:02:08.613Z,53.90
2023-01-30T00:03:08.616Z,54.00
2023-01-30T00:04:08.533Z,54.10
2023-01-30T00:05:08.656Z,51.20
2023-01-30T00:06:08.524Z,51.50
2023-01-30T00:07:08.517Z,49.80
2023-01-30T00:08:08.534Z,50.30
2023-01-30T00:09:08.485Z,50.20
2023-01-30T00:10:09.504Z,51.40
2023-01-30T00:11:08.493Z,52.50
2023-01-30T00:12:08.484Z,50.10
2023-01-30T00:13:08.495Z,49.30
2023-01-30T00:14:08.462Z,51.30
2023-01-30T00:15:08.455Z,50.50
2023-01-30T00:16:08.528Z,55.10
2023-01-30T00:17:08.439Z,55.10
2023-01-30T00:18:08.487Z,54.50
2023-01-30T00:19:08.428Z,56.30
2023-01-30T00:20:08.419Z,58.50
2023-01-30T00:21:08.411Z,57.40
2023-01-30T00:22:08.406Z,57.60
2023-01-30T00:23:08.471Z,57.40
2023-01-30T00:24:08.457Z,60.30
2023-01-30T00:25:08.546Z,60.50
2023-01-30T00:26:08.384Z,58.10
2023-01-30T00:27:08.377Z,56.00
2023-01-30T00:28:08.441Z,53.70
2023-01-30T00:29:08.353Z,54.70
2023-01-30T00:30:08.361Z,57.80
2023-01-30T00:31:08.360Z,56.60
2023-01-30T00:32:08.349Z,57.20
2023-01-30T00:33:08.355Z,55.10
2023-01-30T00:34:08.321Z,56.50
2023-01-30T00:35:08.315Z,57.30
2023-01-30T00:36:08.310Z,58.10
2023-01-30T00:37:08.757Z,61.80
2023-01-30T00:38:09.313Z,59.30
2023-01-30T00:39:08.313Z,61.90
2023-01-30T00:40:08.301Z,57.00
2023-01-30T00:41:08.266Z,60.20
2023-01-30T00:42:08.257Z,63.50
2023-01-30T00:43:08.282Z,63.50
2023-01-30T00:44:08.251Z,57.70
2023-01-30T00:45:08.248Z,56.40
2023-01-30T00:46:08.339Z,58.30
2023-01-30T00:47:08.228Z,59.10
2023-01-30T00:48:08.274Z,56.30
2023-01-30T00:49:08.215Z,57.50
2023-01-30T00:50:08.222Z,60.60
2023-01-30T00:51:08.262Z,56.50
2023-01-30T00:52:08.193Z,61.70
2023-01-30T00:53:08.195Z,60.60
2023-01-30T00:54:08.206Z,60.90
2023-01-30T00:55:08.168Z,62.40
2023-01-30T00:56:08.166Z,64.60
2023-01-30T00:57:08.161Z,65.50
2023-01-30T00:58:08.161Z,65.80
2023-01-30T00:59:08.176Z,62.00
2023-01-30T01:00:08.215Z,65.90
2023-01-30T01:01:08.147Z,60.20
2023-01-30T01:02:08.217Z,59.90
2023-01-30T01:03:08.122Z,61.80
2023-01-30T01:04:08.129Z,61.70
2023-01-30T01:05:08.099Z,61.80
2023-01-30T01:06:08.136Z,58.00
2023-01-30T01:07:08.087Z,60.30
2023-01-30T01:08:08.100Z,60.80
2023-01-30T01:09:08.113Z,61.90
2023-01-30T01:10:08.079Z,60.20
2023-01-30T01:11:08.058Z,61.70
2023-01-30T01:12:08.053Z,64.00
2023-01-30T01:13:08.038Z,61.10
2023-01-30T01:14:08.054Z,61.20
2023-01-30T01:15:08.034Z,61.30
2023-01-30T01:16:08.026Z,63.50
2023-01-30T01:17:08.012Z,64.00
2023-01-30T01:18:08.005Z,63.80
2023-01-30T01:19:08.027Z,64.00
2023-01-30T01:20:07.992Z,63.50
2023-01-30T01:21:07.988Z,62.90
2023-01-30T01:22:07.984Z,61.60
2023-01-30T01:23:07.973Z,61.30
2023-01-30T01:24:07.989Z,60.70
2023-01-30T01:25:07.964Z,62.00
2023-01-30T01:26:07.952Z,64.40
2023-01-30T01:27:07.943Z,60.70
2023-01-30T01:28:07.934Z,60.80
2023-01-30T01:29:07.948Z,62.30
2023-01-30T01:30:07.925Z,61.10
2023-01-30T01:31:08.087Z,60.90
2023-01-30T01:32:07.967Z,60.70
2023-01-30T01:33:07.919Z,63.70
2023-01-30T01:34:07.917Z,62.50
2023-01-30T01:35:07.900Z,58.40
2023-01-30T01:36:07.877Z,59.80
2023-01-30T01:37:07.947Z,58.30
2023-01-30T01:38:07.871Z,57.20
2023-01-30T01:39:07.892Z,57.10
2023-01-30T01:40:07.856Z,61.60
2023-01-30T01:41:07.853Z,57.00
2023-01-30T01:42:08.860Z,56.30
2023-01-30T01:43:07.839Z,59.50
2023-01-30T01:44:07.864Z,55.30
2023-01-30T01:45:07.818Z,55.80
2023-01-30T01:46:07.822Z,55.00
2023-01-30T01:47:07.805Z,54.10
2023-01-30T01:48:07.799Z,55.90
2023-01-30T01:49:07.814Z,54.70
2023-01-30T01:50:08.839Z,55.40
2023-01-30T01:51:07.784Z,54.20
2023-01-30T01:52:07.763Z,54.10
2023-01-30T01:53:07.757Z,54.20
2023-01-30T01:54:07.779Z,55.90
2023-01-30T01:55:07.735Z,57.40
2023-01-30T01:56:07.739Z,56.70
2023-01-30T01:57:07.729Z,55.30
2023-01-30T01:58:07.720Z,57.30
2023-01-30T01:59:07.735Z,55.10
2023-01-30T02:00:07.725Z,56.20
2023-01-30T02:01:07.757Z,54.30
2023-01-30T02:02:07.803Z,54.80
2023-01-30T02:03:07.696Z,52.70
2023-01-30T02:04:07.680Z,55.30
2023-01-30T02:05:07.704Z,53.90
2023-01-30T02:06:07.680Z,51.80
2023-01-30T02:07:07.665Z,53.00
2023-01-30T02:08:07.654Z,53.60
2023-01-30T02:09:07.679Z,52.10
2023-01-30T02:10:07.651Z,51.70
2023-01-30T02:11:07.624Z,51.70
2023-01-30T02:12:07.630Z,48.80
2023-01-30T02:13:07.630Z,51.80
2023-01-30T02:14:07.602Z,54.40
2023-01-30T02:15:07.653Z,51.40
2023-01-30T02:16:07.588Z,52.50
2023-01-30T02:17:07.576Z,49.70
2023-01-30T02:18:07.568Z,50.90
2023-01-30T02:19:07.584Z,50.80
2023-01-30T02:20:07.606Z,51.50
2023-01-30T02:21:07.545Z,51.40
2023-01-30T02:22:07.556Z,52.20
2023-01-30T02:23:07.545Z,52.50
2023-01-30T02:24:07.531Z,50.40
2023-01-30T02:25:07.544Z,51.70
2023-01-30T02:26:07.514Z,50.20
2023-01-30T02:27:07.507Z,50.20
2023-01-30T02:28:07.504Z,47.50
2023-01-30T02:29:07.499Z,52.40
2023-01-30T02:30:07.516Z,48.50
2023-01-30T02:31:07.537Z,51.20
2023-01-30T02:32:07.467Z,47.90
2023-01-30T02:33:07.457Z,50.40
2023-01-30T02:34:07.468Z,51.30
2023-01-30T02:35:07.473Z,49.80
2023-01-30T02:36:07.440Z,52.00
2023-01-30T02:37:07.480Z,45.80
2023-01-30T02:38:07.457Z,50.70
2023-01-30T02:39:07.412Z,46.70
2023-01-30T02:40:08.448Z,49.10
2023-01-30T02:41:07.401Z,50.10
2023-01-30T02:42:07.388Z,48.40
2023-01-30T02:43:07.427Z,48.60
2023-01-30T02:44:07.384Z,50.70
2023-01-30T02:45:07.413Z,48.30
2023-01-30T02:46:07.401Z,46.70
2023-01-30T02:47:08.386Z,45.50
2023-01-30T02:48:07.355Z,42.00
2023-01-30T02:49:07.348Z,41.20
2023-01-30T02:50:07.362Z,42.10
2023-01-30T02:51:07.445Z,38.60
2023-01-30T02:52:07.319Z,40.60
2023-01-30T02:53:07.342Z,42.30
2023-01-30T02:54:07.309Z,41.50
2023-01-30T02:55:07.320Z,40.50
2023-01-30T02:56:07.296Z,40.90
2023-01-30T02:57:07.299Z,42.30
2023-01-30T02:58:07.275Z,42.40
2023-01-30T02:59:07.269Z,42.80
2023-01-30T03:00:07.509Z,42.50
2023-01-30T03:01:07.331Z,43.70
2023-01-30T03:02:07.299Z,44.00
2023-01-30T03:03:07.262Z,44.40
2023-01-30T03:04:07.235Z,43.20
2023-01-30T03:05:07.257Z,43.40
2023-01-30T03:06:07.220Z,45.90
2023-01-30T03:07:07.211Z,45.50
2023-01-30T03:08:07.213Z,45.70
2023-01-30T03:09:07.194Z,43.70
2023-01-30T03:10:07.219Z,44.90
2023-01-30T03:11:07.179Z,45.50
2023-01-30T03:12:07.167Z,44.70
2023-01-30T03:13:07.170Z,47.30
2023-01-30T03:14:07.150Z,45.70
2023-01-30T03:15:07.174Z,46.80
2023-01-30T03:16:07.153Z,46.00
2023-01-30T03:17:07.127Z,47.10
2023-01-30T03:18:07.121Z,47.30
2023-01-30T03:19:07.133Z,44.50
2023-01-30T03:20:07.117Z,48.50
2023-01-30T03:21:07.143Z,47.40
2023-01-30T03:22:07.084Z,51.00
2023-01-30T03:23:07.089Z,48.80
2023-01-30T03:24:07.077Z,48.10
2023-01-30T03:25:07.067Z,48.90
2023-01-30T03:26:07.084Z,49.40
2023-01-30T03:27:07.052Z,49.60
2023-01-30T03:28:07.051Z,52.40
2023-01-30T03:29:07.059Z,47.10
2023-01-30T03:30:07.040Z,50.40
2023-01-30T03:31:07.227Z,53.00
2023-01-30T03:32:07.008Z,49.40
2023-01-30T03:33:07.002Z,51.70
2023-01-30T03:34:06.996Z,52.20
2023-01-30T03:35:06.986Z,48.20
2023-01-30T03:36:07.005Z,49.10
2023-01-30T03:37:06.963Z,50.20
2023-01-30T03:38:07.966Z,48.60
2023-01-30T03:39:06.960Z,52.10
2023-01-30T03:40:06.958Z,50.80
2023-01-30T03:41:06.971Z,49.70
2023-01-30T03:42:06.931Z,50.40
2023-01-30T03:43:06.929Z,49.40
2023-01-30T03:44:06.921Z,52.80
2023-01-30T03:45:06.913Z,49.60
2023-01-30T03:46:06.986Z,51.80
2023-01-30T03:47:06.907Z,49.70
2023-01-30T03:48:06.897Z,50.50
2023-01-30T03:49:06.879Z,50.00
2023-01-30T03:50:06.918Z,48.70
2023-01-30T03:51:06.897Z,51.10
2023-01-30T03:52:06.864Z,50.60
2023-01-30T03:53:06.910Z,52.40
2023-01-30T03:54:06.843Z,49.50
2023-01-30T03:55:06.858Z,49.20
2023-01-30T03:56:06.907Z,51.10
2023-01-30T03:57:06.822Z,50.30
2023-01-30T03:58:06.822Z,49.70
2023-01-30T03:59:06.809Z,46.50
2023-01-30T04:00:06.819Z,46.10
2023-01-30T04:01:06.862Z,45.90
2023-01-30T04:02:06.844Z,44.90
2023-01-30T04:03:06.777Z,44.30
2023-01-30T04:04:06.767Z,45.90
2023-01-30T04:05:06.766Z,46.00
2023-01-30T04:06:06.796Z,47.60
2023-01-30T04:07:06.744Z,46.50
2023-01-30T04:08:06.744Z,45.10
2023-01-30T04:09:06.739Z,47.80
2023-01-30T04:10:06.752Z,46.20
2023-01-30T04:11:06.745Z,45.90
2023-01-30T04:12:06.712Z,43.80
2023-01-30T04:13:06.703Z,43.80
2023-01-30T04:14:06.712Z,45.00
2023-01-30T04:15:06.691Z,45.50
2023-01-30T04:16:06.706Z,43.70
2023-01-30T04:17:06.688Z,44.70
2023-01-30T04:18:06.669Z,43.40
2023-01-30T04:19:06.659Z,43.90
2023-01-30T04:20:06.650Z,42.10
2023-01-30T04:21:06.707Z,44.60
2023-01-30T04:22:06.643Z,44.60
2023-01-30T04:23:06.639Z,42.90
2023-01-30T04:24:06.632Z,45.40
2023-01-30T04:25:06.632Z,48.80
2023-01-30T04:26:06.646Z,44.30
2023-01-30T04:27:06.598Z,42.60
2023-01-30T04:28:06.602Z,45.40
2023-01-30T04:29:06.580Z,45.60
2023-01-30T04:30:06.574Z,42.80
2023-01-30T04:31:06.633Z,42.80
2023-01-30T04:32:06.556Z,44.20
2023-01-30T04:33:06.558Z,43.10
2023-01-30T04:34:06.547Z,45.20
2023-01-30T04:35:06.585Z,43.60
2023-01-30T04:36:06.557Z,43.50
2023-01-30T04:37:06.531Z,42.30
2023-01-30T04:38:06.511Z,42.20
2023-01-30T04:39:06.512Z,43.90
2023-01-30T04:40:06.495Z,40.50
2023-01-30T04:41:06.521Z,41.10
2023-01-30T04:42:06.480Z,39.60
2023-01-30T04:43:06.473Z,40.80
2023-01-30T04:44:06.479Z,40.30
2023-01-30T04:45:06.470Z,41.30
2023-01-30T04:46:06.446Z,39.80
2023-01-30T04:47:06.471Z,39.30
2023-01-30T04:48:06.433Z,38.00
2023-01-30T04:49:06.424Z,38.00
2023-01-30T04:50:06.417Z,40.00
2023-01-30T04:51:06.444Z,37.20
2023-01-30T04:52:06.429Z,37.40
2023-01-30T04:53:06.388Z,36.20
2023-01-30T04:54:06.390Z,36.00
2023-01-30T04:55:39.176Z,35.30
2023-01-30T04:56:06.392Z,35.80
2023-01-30T04:57:06.400Z,37.30
2023-01-30T04:58:06.414Z,35.10
2023-01-30T04:59:06.364Z,35.30
2023-01-30T05:00:06.351Z,33.20
2023-01-30T05:01:06.367Z,33.00
2023-01-30T05:02:06.443Z,32.50
2023-01-30T05:03:07.383Z,31.70
2023-01-30T05:04:06.324Z,31.50
2023-01-30T05:05:06.340Z,31.00
2023-01-30T05:06:06.319Z,33.20
2023-01-30T05:07:06.314Z,32.20
2023-01-30T05:08:06.375Z,31.10
2023-01-30T05:09:06.271Z,32.10
2023-01-30T05:10:06.280Z,32.50
2023-01-30T05:11:06.266Z,30.90
2023-01-30T05:12:06.304Z,30.50
2023-01-30T05:13:06.275Z,29.90
2023-01-30T05:14:06.257Z,29.30
2023-01-30T05:15:06.249Z,30.60
2023-01-30T05:16:06.274Z,28.70
2023-01-30T05:17:06.269Z,31.10
2023-01-30T05:18:06.243Z,31.20
2023-01-30T05:19:06.204Z,29.70
2023-01-30T05:20:06.209Z,31.40
2023-01-30T05:21:06.212Z,27.90
2023-01-30T05:22:06.214Z,29.90
2023-01-30T05:23:06.282Z,30.30
2023-01-30T05:24:06.190Z,31.50
2023-01-30T05:25:06.195Z,30.60
2023-01-30T05:26:06.158Z,30.70
2023-01-30T05:27:06.259Z,32.70
2023-01-30T05:28:06.171Z,30.40
2023-01-30T05:29:06.157Z,29.30
2023-01-30T05:30:06.175Z,29.30
2023-01-30T05:31:06.157Z,30.40
2023-01-30T05:32:06.285Z,27.60
2023-01-30T05:33:06.155Z,29.70
2023-01-30T05:34:06.132Z,28.60
2023-01-30T05:35:06.112Z,28.60
2023-01-30T05:36:06.074Z,29.10
2023-01-30T05:37:06.454Z,29.00
2023-01-30T05:38:06.208Z,28.00
2023-01-30T05:39:06.124Z,28.00
2023-01-30T05:40:06.093Z,29.50
2023-01-30T05:41:06.086Z,31.40
2023-01-30T05:42:06.179Z,28.40
2023-01-30T05:43:06.028Z,28.80
2023-01-30T05:44:06.084Z,27.20
2023-01-30T05:45:06.042Z,28.60
2023-01-30T05:46:06.037Z,29.00
2023-01-30T05:47:06.072Z,27.20
2023-01-30T05:48:06.039Z,27.00
2023-01-30T05:49:05.965Z,30.40
2023-01-30T05:50:06.011Z,28.80
2023-01-30T05:51:05.964Z,29.00
2023-01-30T05:52:05.973Z,27.20
2023-01-30T05:53:05.985Z,27.90
2023-01-30T05:54:05.997Z,29.60
2023-01-30T05:55:06.013Z,27.70
2023-01-30T05:56:05.919Z,31.00
2023-01-30T05:57:05.964Z,27.30
2023-01-30T05:58:05.922Z,29.30
2023-01-30T05:59:05.897Z,29.00
2023-01-30T06:00:05.910Z,29.80
2023-01-30T06:01:05.862Z,28.10
2023-01-30T06:02:05.974Z,29.40
2023-01-30T06:03:05.897Z,29.70
2023-01-30T06:04:05.907Z,29.80
2023-01-30T06:05:05.868Z,29.70
2023-01-30T06:06:05.896Z,29.90
2023-01-30T06:07:06.187Z,29.80
2023-01-30T06:08:05.839Z,30.50
2023-01-30T06:09:05.852Z,31.70
2023-01-30T06:10:05.856Z,31.30
2023-01-30T06:11:05.859Z,30.60
2023-01-30T06:12:05.811Z,33.30
2023-01-30T06:13:05.868Z,32.20
2023-01-30T06:14:05.882Z,31.30
2023-01-30T06:15:05.777Z,32.90
2023-01-30T06:16:05.834Z,29.30
2023-01-30T06:17:05.930Z,32.10
2023-01-30T06:18:05.805Z,29.40
2023-01-30T06:19:05.790Z,31.70
2023-01-30T06:20:05.771Z,31.40
2023-01-30T06:21:05.730Z,31.10
2023-01-30T06:22:05.884Z,32.50
2023-01-30T06:23:05.716Z,32.60
2023-01-30T06:24:05.767Z,31.50
2023-01-30T06:25:05.716Z,30.90
2023-01-30T06:26:08.152Z,29.60
2023-01-30T06:27:06.731Z,31.30
2023-01-30T06:28:05.741Z,30.80
2023-01-30T06:29:05.666Z,31.10
2023-01-30T06:30:05.668Z,30.40
2023-01-30T06:31:05.819Z,30.30
2023-01-30T06:32:05.680Z,31.10
2023-01-30T06:33:05.693Z,29.00
2023-01-30T06:34:05.683Z,31.10
2023-01-30T06:35:05.650Z,30.60
2023-01-30T06:36:05.639Z,30.60
2023-01-30T06:37:05.710Z,29.80
2023-01-30T06:38:05.666Z,30.50
2023-01-30T06:39:05.639Z,30.20
2023-01-30T06:40:05.619Z,30.70
2023-01-30T06:41:05.656Z,30.80
2023-01-30T06:42:05.602Z,32.70
2023-01-30T06:43:05.601Z,29.60
2023-01-30T06:44:05.616Z,29.90
2023-01-30T06:45:05.612Z,30.60
2023-01-30T06:46:05.595Z,30.10
2023-01-30T06:47:05.626Z,28.10
2023-01-30T06:48:05.533Z,30.30
2023-01-30T06:49:05.546Z,31.60
2023-01-30T06:50:05.547Z,30.00
2023-01-30T06:51:05.521Z,29.90
2023-01-30T06:52:05.516Z,29.80
2023-01-30T06:53:05.522Z,29.40
2023-01-30T06:54:05.474Z,30.10
2023-01-30T06:55:05.527Z,29.00
2023-01-30T06:56:05.563Z,29.10
2023-01-30T06:57:05.550Z,30.30
2023-01-30T06:58:05.442Z,29.50
2023-01-30T06:59:05.505Z,29.70
2023-01-30T07:00:05.421Z,27.20
2023-01-30T07:01:05.436Z,28.40
2023-01-30T07:02:05.494Z,30.00
2023-01-30T07:03:05.433Z,29.00
2023-01-30T07:04:05.465Z,29.60
2023-01-30T07:05:05.434Z,31.00
2023-01-30T07:06:05.443Z,29.10
2023-01-30T07:07:07.021Z,26.70
2023-01-30T07:08:05.372Z,28.50
2023-01-30T07:09:05.383Z,28.90
2023-01-30T07:10:08.677Z,28.40
2023-01-30T07:11:06.366Z,27.90
2023-01-30T07:12:05.377Z,28.50
2023-01-30T07:13:05.404Z,29.00
2023-01-30T07:14:06.405Z,30.70
2023-01-30T07:15:06.316Z,30.30
2023-01-30T07:16:05.387Z,29.90
2023-01-30T07:17:05.321Z,32.10
2023-01-30T07:18:05.326Z,31.60
2023-01-30T07:19:05.319Z,31.30
2023-01-30T07:20:05.300Z,29.60
2023-01-30T07:21:05.245Z,31.00
2023-01-30T07:22:05.290Z,31.10
2023-01-30T07:23:05.355Z,32.90
2023-01-30T07:24:05.288Z,35.50
2023-01-30T07:25:05.304Z,43.40
2023-01-30T07:26:05.276Z,37.00
2023-01-30T07:27:05.248Z,31.20
2023-01-30T07:28:05.399Z,31.00
2023-01-30T07:29:05.337Z,32.00
2023-01-30T07:30:05.230Z,31.60
2023-01-30T07:31:05.220Z,32.10
2023-01-30T07:32:05.257Z,32.00
2023-01-30T07:33:05.279Z,32.40
2023-01-30T07:34:05.181Z,35.40
2023-01-30T07:35:06.080Z,33.50
2023-01-30T07:36:06.165Z,33.50
2023-01-30T07:37:05.199Z,33.40
2023-01-30T07:38:05.212Z,34.10
2023-01-30T07:39:05.150Z,33.90
2023-01-30T07:40:05.169Z,34.00
2023-01-30T07:41:05.357Z,33.90
2023-01-30T07:42:05.158Z,33.50
2023-01-30T07:43:05.415Z,35.30
2023-01-30T07:44:05.149Z,35.10
2023-01-30T07:45:05.180Z,33.70
2023-01-30T07:46:05.215Z,33.90
2023-01-30T07:47:05.142Z,34.20
2023-01-30T07:48:05.152Z,34.80
2023-01-30T07:49:05.092Z,37.50
2023-01-30T07:50:05.108Z,33.70
2023-01-30T07:51:05.056Z,38.20
2023-01-30T07:52:05.081Z,34.40
2023-01-30T07:53:05.140Z,35.90
2023-01-30T07:54:05.139Z,38.80
2023-01-30T07:55:05.014Z,37.40
2023-01-30T07:56:05.025Z,40.10
2023-01-30T07:57:05.036Z,37.00
2023-01-30T07:58:05.181Z,39.10
2023-01-30T07:59:05.012Z,39.20
2023-01-30T08:00:05.124Z,41.10
2023-01-30T08:01:05.077Z,39.70
2023-01-30T08:02:04.965Z,37.00
2023-01-30T08:03:05.082Z,37.20
2023-01-30T08:04:04.988Z,34.10
2023-01-30T08:05:06.259Z,38.40
2023-01-30T08:06:05.976Z,37.80
2023-01-30T08:07:04.939Z,42.40
2023-01-30T08:08:05.021Z,46.10
2023-01-30T08:09:04.917Z,36.50
2023-01-30T08:10:05.030Z,43.10
2023-01-30T08:11:04.918Z,45.80
2023-01-30T08:12:04.946Z,49.30
2023-01-30T08:13:05.004Z,37.60
2023-01-30T08:14:04.839Z,38.40
2023-01-30T08:15:04.914Z,37.20
2023-01-30T08:16:04.844Z,37.00
2023-01-30T08:17:04.849Z,36.20
2023-01-30T08:18:04.913Z,37.40
2023-01-30T08:19:04.834Z,32.50
2023-01-30T08:20:04.867Z,36.30
2023-01-30T08:21:04.879Z,35.60
2023-01-30T08:22:04.824Z,43.10
2023-01-30T08:23:04.900Z,40.30
2023-01-30T08:24:04.857Z,39.20
2023-01-30T08:25:04.863Z,40.60
2023-01-30T08:26:05.820Z,38.10
2023-01-30T08:27:04.848Z,38.60
2023-01-30T08:28:05.843Z,34.10
2023-01-30T08:29:04.789Z,33.80
2023-01-30T08:30:04.747Z,32.00
2023-01-30T08:31:04.875Z,31.90
2023-01-30T08:32:04.751Z,33.70
2023-01-30T08:33:04.876Z,32.90
2023-01-30T08:34:04.753Z,35.20
2023-01-30T08:35:04.731Z,34.60
2023-01-30T08:36:04.705Z,38.50
2023-01-30T08:37:04.687Z,40.40
2023-01-30T08:38:04.734Z,36.20
2023-01-30T08:39:04.705Z,32.20
2023-01-30T08:40:04.719Z,31.80
2023-01-30T08:41:04.701Z,27.50
2023-01-30T08:42:04.659Z,26.00
2023-01-30T08:43:04.676Z,28.50
2023-01-30T08:44:04.830Z,27.80
2023-01-30T08:45:04.641Z,24.50
2023-01-30T08:46:04.742Z,24.60
2023-01-30T08:47:04.655Z,27.40
2023-01-30T08:48:04.669Z,28.60
2023-01-30T08:49:04.715Z,29.40
2023-01-30T08:50:04.666Z,30.60
2023-01-30T08:51:04.625Z,34.30
2023-01-30T08:52:04.590Z,34.20
2023-01-30T08:53:04.766Z,41.80
2023-01-30T08:54:05.605Z,37.40
2023-01-30T08:55:04.677Z,38.00
2023-01-30T08:56:04.559Z,30.30
2023-01-30T08:57:04.577Z,26.40
2023-01-30T08:58:04.626Z,23.70
2023-01-30T08:59:04.564Z,23.70
2023-01-30T09:00:04.576Z,25.00
2023-01-30T09:01:04.661Z,24.50
2023-01-30T09:02:04.525Z,25.70
2023-01-30T09:03:04.528Z,23.80
2023-01-30T09:04:04.511Z,21.10
2023-01-30T09:05:04.516Z,22.10
2023-01-30T09:06:04.521Z,18.50
2023-01-30T09:07:04.530Z,20.00
2023-01-30T09:08:04.483Z,18.50
2023-01-30T09:09:04.514Z,19.30
2023-01-30T09:10:04.523Z,19.80
2023-01-30T09:11:04.570Z,18.10
2023-01-30T09:12:04.516Z,18.50
2023-01-30T09:13:04.470Z,18.40
2023-01-30T09:14:04.422Z,17.10
2023-01-30T09:15:04.443Z,16.30
2023-01-30T09:16:04.424Z,16.00
2023-01-30T09:17:04.393Z,15.40
2023-01-30T09:18:04.446Z,18.00
2023-01-30T09:19:04.419Z,15.60
2023-01-30T09:20:04.405Z,17.60
2023-01-30T09:21:04.512Z,18.80
2023-01-30T09:22:04.423Z,18.80
2023-01-30T09:23:04.376Z,20.30
2023-01-30T09:24:04.395Z,21.00
2023-01-30T09:25:05.118Z,20.90
2023-01-30T09:26:04.405Z,19.60
2023-01-30T09:27:04.374Z,20.00
2023-01-30T09:28:04.358Z,19.50
2023-01-30T09:29:04.416Z,18.90
2023-01-30T09:30:04.485Z,21.30
2023-01-30T09:31:04.500Z,19.90
2023-01-30T09:32:04.364Z,18.10
2023-01-30T09:33:04.306Z,18.50
2023-01-30T09:34:04.268Z,20.30
2023-01-30T09:35:04.276Z,17.40
2023-01-30T09:36:04.296Z,20.10
2023-01-30T09:37:05.157Z,18.00
2023-01-30T09:38:05.273Z,16.50
2023-01-30T09:39:04.239Z,17.40
2023-01-30T09:40:04.218Z,17.00
2023-01-30T09:41:04.224Z,16.60
2023-01-30T09:42:04.301Z,18.20
2023-01-30T09:43:04.219Z,17.80
2023-01-30T09:44:04.226Z,15.50
2023-01-30T09:45:04.203Z,15.70
2023-01-30T09:46:04.252Z,16.50
2023-01-30T09:47:04.204Z,17.70
2023-01-30T09:48:04.156Z,18.30
2023-01-30T09:49:04.213Z,19.70
2023-01-30T09:50:04.213Z,18.80
2023-01-30T09:51:04.187Z,16.30
2023-01-30T09:52:04.218Z,17.40
2023-01-30T09:53:04.163Z,15.40
2023-01-30T09:54:04.190Z,14.40
2023-01-30T09:55:04.188Z,15.90
2023-01-30T09:56:04.125Z,16.80
2023-01-30T09:57:04.145Z,16.70
2023-01-30T09:58:04.165Z,16.50
2023-01-30T09:59:04.132Z,16.60
2023-01-30T10:00:04.090Z,16.30
2023-01-30T10:01:04.118Z,15.00
2023-01-30T10:02:04.101Z,16.20
2023-01-30T10:03:04.119Z,16.70
2023-01-30T10:04:04.081Z,19.40
2023-01-30T10:05:04.109Z,17.70
2023-01-30T10:06:04.037Z,18.50
2023-01-30T10:07:04.137Z,16.20
2023-01-30T10:08:04.064Z,16.80
2023-01-30T10:09:04.026Z,17.20
2023-01-30T10:10:04.172Z,16.80
2023-01-30T10:11:10.000Z,16.90
2023-01-30T10:12:06.008Z,16.80
2023-01-30T10:13:03.979Z,15.00
2023-01-30T10:14:03.960Z,14.60
2023-01-30T10:15:03.996Z,16.20
2023-01-30T10:16:04.070Z,16.10
2023-01-30T10:17:04.012Z,18.60
2023-01-30T10:18:04.049Z,18.70
2023-01-30T10:19:03.982Z,16.10
2023-01-30T10:20:03.918Z,16.90
2023-01-30T10:21:03.972Z,18.80
2023-01-30T10:22:03.968Z,16.10
2023-01-30T10:23:03.925Z,16.50
2023-01-30T10:24:03.942Z,18.60
2023-01-30T10:25:04.033Z,14.00
2023-01-30T10:26:03.920Z,16.60
2023-01-30T10:27:04.924Z,15.80
2023-01-30T10:28:04.850Z,13.90
2023-01-30T10:29:08.172Z,15.30
2023-01-30T10:30:05.067Z,13.40
2023-01-30T10:31:03.900Z,14.10
2023-01-30T10:32:03.900Z,14.30
2023-01-30T10:33:03.843Z,13.90
2023-01-30T10:34:03.888Z,13.80
2023-01-30T10:35:03.823Z,14.00
2023-01-30T10:36:03.842Z,12.10
2023-01-30T10:37:03.853Z,11.80
2023-01-30T10:38:03.872Z,14.30
2023-01-30T10:39:03.847Z,16.10
2023-01-30T10:40:03.817Z,12.10
2023-01-30T10:41:03.763Z,10.30
2023-01-30T10:42:04.793Z,12.50
2023-01-30T10:43:03.736Z,13.80
2023-01-30T10:44:03.772Z,12.50
2023-01-30T10:45:03.760Z,11.40
2023-01-30T10:46:03.793Z,10.50
2023-01-30T10:47:03.808Z,11.40
2023-01-30T10:48:03.757Z,10.30
2023-01-30T10:49:03.780Z,11.30
2023-01-30T10:50:03.736Z,9.90
2023-01-30T10:51:03.676Z,10.60
2023-01-30T10:52:03.720Z,9.00
2023-01-30T10:53:03.726Z,7.20
2023-01-30T10:54:03.743Z,6.40
2023-01-30T10:55:03.743Z,6.40
2023-01-30T10:56:36.225Z,7.90
2023-01-30T10:57:03.621Z,6.70
2023-01-30T10:58:03.643Z,7.90
2023-01-30T10:59:03.616Z,7.50
2023-01-30T11:00:03.603Z,9.20
2023-01-30T11:01:03.636Z,10.70
2023-01-30T11:02:03.671Z,9.50
2023-01-30T11:03:03.673Z,11.00
2023-01-30T11:04:04.566Z,6.90
2023-01-30T11:05:03.598Z,6.90
2023-01-30T11:06:03.588Z,7.50
2023-01-30T11:07:03.551Z,7.80
2023-01-30T11:08:03.568Z,9.80
2023-01-30T11:09:03.558Z,10.20
2023-01-30T11:10:03.526Z,11.00
2023-01-30T11:11:03.518Z,9.80
2023-01-30T11:12:03.512Z,15.70
2023-01-30T11:13:03.529Z,81.50
2023-01-30T11:14:03.497Z,105.50
2023-01-30T11:15:03.495Z,50.00
2023-01-30T11:16:03.578Z,21.10
2023-01-30T11:17:03.477Z,16.30
2023-01-30T11:18:32.869Z,12.60
2023-01-30T11:19:22.364Z,10.70
2023-01-30T11:20:05.451Z,8.80
2023-01-30T11:21:03.447Z,9.40
2023-01-30T11:22:03.435Z,11.60
2023-01-30T11:23:03.459Z,8.40
2023-01-30T11:24:03.435Z,8.40
2023-01-30T11:25:03.430Z,7.30
2023-01-30T11:26:11.382Z,7.00
2023-01-30T11:27:05.409Z,5.90
2023-01-30T11:28:03.419Z,7.80
2023-01-30T11:29:03.387Z,6.90
2023-01-30T11:30:03.401Z,7.60
2023-01-30T11:31:03.364Z,7.30
2023-01-30T11:32:04.451Z,6.70
2023-01-30T11:33:03.384Z,7.10
2023-01-30T11:34:03.352Z,8.80
2023-01-30T11:35:03.349Z,8.30
2023-01-30T11:36:04.539Z,7.80
2023-01-30T11:37:04.454Z,8.20
2023-01-30T11:38:03.345Z,9.60
2023-01-30T11:39:03.303Z,7.30
2023-01-30T11:40:03.305Z,6.90
2023-01-30T11:41:03.292Z,7.70
2023-01-30T11:42:03.282Z,7.60
2023-01-30T11:43:03.296Z,8.90
2023-01-30T11:44:03.287Z,7.70
2023-01-30T11:45:16.659Z,7.50
2023-01-30T11:46:05.332Z,8.80
2023-01-30T11:47:03.244Z,7.60
2023-01-30T11:48:03.877Z,8.50
2023-01-30T11:49:09.087Z,7.70
2023-01-30T11:50:12.561Z,8.00
2023-01-30T11:51:04.226Z,8.00
2023-01-30T11:52:03.202Z,8.30
2023-01-30T11:53:03.241Z,10.30
2023-01-30T11:54:03.185Z,8.90
2023-01-30T11:55:03.214Z,9.00
2023-01-30T11:56:07.294Z,8.20
2023-01-30T11:57:05.162Z,6.70
2023-01-30T11:58:03.196Z,7.40
2023-01-30T11:59:03.158Z,8.90
2023-01-30T12:00:03.144Z,8.90
2023-01-30T12:01:03.134Z,8.20
2023-01-30T12:02:03.199Z,8.30
2023-01-30T12:03:03.254Z,8.50
2023-01-30T12:04:03.143Z,8.90
2023-01-30T12:05:03.108Z,8.90
2023-01-30T12:06:03.123Z,12.00
2023-01-30T12:07:03.087Z,9.30
2023-01-30T12:08:03.105Z,8.40
2023-01-30T12:09:03.095Z,9.30
2023-01-30T12:10:03.081Z,10.10
2023-01-30T12:11:03.067Z,9.10
2023-01-30T12:12:03.073Z,9.00
2023-01-30T12:13:03.039Z,8.70
2023-01-30T12:14:03.058Z,7.30
2023-01-30T12:15:03.040Z,9.80
2023-01-30T12:16:03.065Z,8.50
2023-01-30T12:17:03.042Z,6.70
2023-01-30T12:18:02.998Z,10.00
2023-01-30T12:19:03.025Z,9.50
2023-01-30T12:20:02.987Z,8.70
2023-01-30T12:21:02.988Z,10.10
2023-01-30T12:22:02.974Z,9.30
2023-01-30T12:23:02.982Z,9.70
2023-01-30T12:24:02.987Z,9.60
2023-01-30T12:25:02.946Z,9.40
2023-01-30T12:26:02.955Z,9.90
2023-01-30T12:27:02.934Z,8.10
2023-01-30T12:28:02.936Z,9.60
2023-01-30T12:29:02.943Z,9.00
2023-01-30T12:30:02.909Z,8.50
2023-01-30T12:31:02.916Z,9.90
2023-01-30T12:32:02.904Z,9.30
2023-01-30T12:34:02.921Z,10.70
2023-01-30T12:35:02.878Z,9.90
2023-01-30T12:36:02.871Z,12.20
2023-01-30T12:37:02.857Z,10.60
2023-01-30T12:38:02.855Z,9.90
2023-01-30T12:39:02.874Z,10.20
2023-01-30T12:40:02.834Z,11.40
2023-01-30T12:41:02.829Z,9.70
2023-01-30T12:42:02.826Z,9.80
2023-01-30T12:43:02.843Z,9.50
2023-01-30T12:44:02.836Z,9.90
2023-01-30T12:45:02.803Z,9.60
2023-01-30T12:46:03.405Z,11.40
2023-01-30T12:47:02.782Z,10.70
2023-01-30T12:48:02.765Z,9.40
2023-01-30T12:49:10.853Z,10.70
2023-01-30T12:50:04.757Z,10.00
2023-01-30T12:51:02.762Z,9.90
2023-01-30T12:52:02.742Z,11.40
2023-01-30T12:53:02.741Z,11.60
2023-01-30T12:54:02.763Z,9.10
2023-01-30T12:55:02.728Z,11.30
2023-01-30T12:56:02.736Z,14.90